Shungnak Airport

About
Name: Shungnak Airport
Identifier:  SHG/PAGH
Serves:  Shungnak, Alaska
Owner:  State of Alaska DOT&PF
Public/Private:  Public
Local Time:  17. Aug 20:57 AKDT
Description: Shungnak Airport is a state-owned public-use airport located in Shungnak, a city in the Northwest Arctic of the U.S. state of Alaska.
Source: Wikipedia
Location
Runways
Identifier Length (m/ft) Surface
9/27 4,000/4,000 Gravel
Flights per Day
4 flights
Distance: 80km (49mi)
Punctuality
84% (0 flights per day delayed)
Delay Average: 17 minutes
Current Weather
 16 C (Humidity: 48%)
  11kt (20km/h / 12mph) from 300°
  16km (10 mi.)
 
 METAR PAGH 180356Z AUTO 30011KT 10SM CLR 16/05 A3058 RMK AO2 SLP359 T01560050 PNO $

Current Flights

Departures
Number Departure To Airline
Arrivals
Number Arrival From Airline
 7H3352 17:00 +87  Kotzebue Ravn Alaska

Current Delays

Departures
N/A
Arrivals
N/A

Destinations

Top Destinations
Airport Flights
per week
Seats
per week
  Kotzebue (OTZ) 1 - 0 0
  Nome (OME) 0 - 0 0

Airlines & Planes

Top Airlines
Airline Flights
per Day
Seats
per Day
Bering Air 0 -
Top Plane Types
Model Flights Seats
Piper PA-31-350 0.1/day - 0
Cessna C208 0.1/day - 0
Beech B200 Super King Air 0.0/day - 0